sensor_id;sensor_type;location;lat;lon;timestamp;temperature;humidity
3154;DHT22;1587;48.630;9.046;2022-08-26T00:02:02;15.70;99.90
3154;DHT22;1587;48.630;9.046;2022-08-26T00:04:28;15.50;99.90
3154;DHT22;1587;48.630;9.046;2022-08-26T00:06:54;15.50;99.90
3154;DHT22;1587;48.630;9.046;2022-08-26T00:09:20;15.50;99.90
3154;DHT22;1587;48.630;9.046;2022-08-26T00:11:45;15.30;99.90
3154;DHT22;1587;48.630;9.046;2022-08-26T00:14:12;15.40;99.90
3154;DHT22;1587;48.630;9.046;2022-08-26T00:16:38;15.40;99.90
3154;DHT22;1587;48.630;9.046;2022-08-26T00:19:03;15.50;99.90
3154;DHT22;1587;48.630;9.046;2022-08-26T00:21:29;15.40;99.90
3154;DHT22;1587;48.630;9.046;2022-08-26T00:23:54;15.20;99.90
3154;DHT22;1587;48.630;9.046;2022-08-26T00:26:20;15.30;99.90
3154;DHT22;1587;48.630;9.046;2022-08-26T00:28:45;15.30;99.90
3154;DHT22;1587;48.630;9.046;2022-08-26T00:31:11;15.20;99.90
3154;DHT22;1587;48.630;9.046;2022-08-26T00:33:37;15.20;99.90
3154;DHT22;1587;48.630;9.046;2022-08-26T00:36:02;15.10;99.90
3154;DHT22;1587;48.630;9.046;2022-08-26T00:38:28;15.00;99.90
3154;DHT22;1587;48.630;9.046;2022-08-26T00:40:54;15.10;99.90
3154;DHT22;1587;48.630;9.046;2022-08-26T00:43:22;15.20;99.90
3154;DHT22;1587;48.630;9.046;2022-08-26T00:46:00;15.20;99.90
3154;DHT22;1587;48.630;9.046;2022-08-26T00:48:28;15.20;99.90
3154;DHT22;1587;48.630;9.046;2022-08-26T00:51:06;15.20;99.90
3154;DHT22;1587;48.630;9.046;2022-08-26T00:53:33;15.20;99.90
3154;DHT22;1587;48.630;9.046;2022-08-26T00:56:09;15.10;99.90
3154;DHT22;1587;48.630;9.046;2022-08-26T00:58:37;15.00;99.90
3154;DHT22;1587;48.630;9.046;2022-08-26T01:01:07;15.00;99.90
3154;DHT22;1587;48.630;9.046;2022-08-26T01:03:33;15.00;99.90
3154;DHT22;1587;48.630;9.046;2022-08-26T01:05:59;15.00;99.90
3154;DHT22;1587;48.630;9.046;2022-08-26T01:08:44;15.10;99.90
3154;DHT22;1587;48.630;9.046;2022-08-26T01:11:10;15.10;99.90
3154;DHT22;1587;48.630;9.046;2022-08-26T01:13:36;15.00;99.90
3154;DHT22;1587;48.630;9.046;2022-08-26T01:16:02;15.00;99.90
3154;DHT22;1587;48.630;9.046;2022-08-26T01:18:29;15.00;99.90
3154;DHT22;1587;48.630;9.046;2022-08-26T01:23:34;14.90;99.90
3154;DHT22;1587;48.630;9.046;2022-08-26T01:26:05;14.80;99.90
3154;DHT22;1587;48.630;9.046;2022-08-26T01:28:33;14.80;99.90
3154;DHT22;1587;48.630;9.046;2022-08-26T01:30:59;14.70;99.90
3154;DHT22;1587;48.630;9.046;2022-08-26T01:33:28;14.80;99.90
3154;DHT22;1587;48.630;9.046;2022-08-26T01:35:54;14.70;99.90
3154;DHT22;1587;48.630;9.046;2022-08-26T01:38:20;14.70;99.90
3154;DHT22;1587;48.630;9.046;2022-08-26T01:40:46;14.60;99.90
3154;DHT22;1587;48.630;9.046;2022-08-26T01:43:14;14.70;99.90
3154;DHT22;1587;48.630;9.046;2022-08-26T01:45:41;14.70;99.90
3154;DHT22;1587;48.630;9.046;2022-08-26T01:48:07;14.70;99.90
3154;DHT22;1587;48.630;9.046;2022-08-26T01:50:36;14.80;99.90
3154;DHT22;1587;48.630;9.046;2022-08-26T01:53:04;14.70;99.90
3154;DHT22;1587;48.630;9.046;2022-08-26T01:55:30;14.50;99.90
3154;DHT22;1587;48.630;9.046;2022-08-26T01:57:56;14.50;99.90
3154;DHT22;1587;48.630;9.046;2022-08-26T02:00:23;14.60;99.90
3154;DHT22;1587;48.630;9.046;2022-08-26T02:02:50;14.50;99.90
3154;DHT22;1587;48.630;9.046;2022-08-26T02:05:37;14.40;99.90
3154;DHT22;1587;48.630;9.046;2022-08-26T02:08:02;14.30;99.90
3154;DHT22;1587;48.630;9.046;2022-08-26T02:10:28;14.30;99.90
3154;DHT22;1587;48.630;9.046;2022-08-26T02:12:53;14.30;99.90
3154;DHT22;1587;48.630;9.046;2022-08-26T02:15:19;14.30;99.90
3154;DHT22;1587;48.630;9.046;2022-08-26T02:17:44;14.30;99.90
3154;DHT22;1587;48.630;9.046;2022-08-26T02:20:11;14.30;99.90
3154;DHT22;1587;48.630;9.046;2022-08-26T02:22:38;14.40;99.90
3154;DHT22;1587;48.630;9.046;2022-08-26T02:27:43;14.30;99.90
3154;DHT22;1587;48.630;9.046;2022-08-26T02:32:36;14.30;99.90
3154;DHT22;1587;48.630;9.046;2022-08-26T02:35:01;14.30;99.90
3154;DHT22;1587;48.630;9.046;2022-08-26T02:37:30;14.20;99.90
3154;DHT22;1587;48.630;9.046;2022-08-26T02:39:56;14.20;99.90
3154;DHT22;1587;48.630;9.046;2022-08-26T02:42:22;14.10;99.90
3154;DHT22;1587;48.630;9.046;2022-08-26T02:44:47;14.10;99.90
3154;DHT22;1587;48.630;9.046;2022-08-26T02:47:13;14.10;99.90
3154;DHT22;1587;48.630;9.046;2022-08-26T02:49:40;14.10;99.90
3154;DHT22;1587;48.630;9.046;2022-08-26T02:52:06;14.00;99.90
3154;DHT22;1587;48.630;9.046;2022-08-26T02:54:31;14.10;99.90
3154;DHT22;1587;48.630;9.046;2022-08-26T02:56:57;14.10;99.90
3154;DHT22;1587;48.630;9.046;2022-08-26T02:59:22;14.10;99.90
3154;DHT22;1587;48.630;9.046;2022-08-26T03:01:48;14.10;99.90
3154;DHT22;1587;48.630;9.046;2022-08-26T03:04:14;14.10;99.90
3154;DHT22;1587;48.630;9.046;2022-08-26T03:06:40;14.10;99.90
3154;DHT22;1587;48.630;9.046;2022-08-26T03:09:05;14.20;99.90
3154;DHT22;1587;48.630;9.046;2022-08-26T03:11:31;14.20;99.90
3154;DHT22;1587;48.630;9.046;2022-08-26T03:13:57;14.10;99.90
3154;DHT22;1587;48.630;9.046;2022-08-26T03:16:23;14.00;99.90
3154;DHT22;1587;48.630;9.046;2022-08-26T03:18:48;14.00;99.90
3154;DHT22;1587;48.630;9.046;2022-08-26T03:21:15;13.90;99.90
3154;DHT22;1587;48.630;9.046;2022-08-26T03:23:41;13.90;99.90
3154;DHT22;1587;48.630;9.046;2022-08-26T03:26:07;13.90;99.90
3154;DHT22;1587;48.630;9.046;2022-08-26T03:28:33;14.00;99.90
3154;DHT22;1587;48.630;9.046;2022-08-26T03:30:59;14.10;99.90
3154;DHT22;1587;48.630;9.046;2022-08-26T03:33:24;14.20;99.90
3154;DHT22;1587;48.630;9.046;2022-08-26T03:35:50;14.10;99.90
3154;DHT22;1587;48.630;9.046;2022-08-26T03:38:17;14.00;99.90
3154;DHT22;1587;48.630;9.046;2022-08-26T03:40:42;14.00;99.90
3154;DHT22;1587;48.630;9.046;2022-08-26T03:43:08;13.90;99.90
3154;DHT22;1587;48.630;9.046;2022-08-26T03:45:34;13.80;99.90
3154;DHT22;1587;48.630;9.046;2022-08-26T03:48:00;13.70;99.90
3154;DHT22;1587;48.630;9.046;2022-08-26T03:50:27;13.60;99.90
3154;DHT22;1587;48.630;9.046;2022-08-26T03:52:53;13.60;99.90
3154;DHT22;1587;48.630;9.046;2022-08-26T03:55:20;13.80;99.90
3154;DHT22;1587;48.630;9.046;2022-08-26T03:57:45;13.70;99.90
3154;DHT22;1587;48.630;9.046;2022-08-26T04:00:12;13.70;99.90
3154;DHT22;1587;48.630;9.046;2022-08-26T04:02:40;13.70;99.90
3154;DHT22;1587;48.630;9.046;2022-08-26T04:05:07;13.70;99.90
3154;DHT22;1587;48.630;9.046;2022-08-26T04:07:32;13.60;99.90
3154;DHT22;1587;48.630;9.046;2022-08-26T04:09:57;13.60;99.90
3154;DHT22;1587;48.630;9.046;2022-08-26T04:12:23;13.70;99.90
3154;DHT22;1587;48.630;9.046;2022-08-26T04:14:50;13.70;99.90
3154;DHT22;1587;48.630;9.046;2022-08-26T04:17:16;13.60;99.90
3154;DHT22;1587;48.630;9.046;2022-08-26T04:19:41;13.50;99.90
3154;DHT22;1587;48.630;9.046;2022-08-26T04:22:07;13.60;99.90
3154;DHT22;1587;48.630;9.046;2022-08-26T04:24:32;13.60;99.90
3154;DHT22;1587;48.630;9.046;2022-08-26T04:26:59;13.70;99.90
3154;DHT22;1587;48.630;9.046;2022-08-26T04:29:26;13.70;99.90
3154;DHT22;1587;48.630;9.046;2022-08-26T04:31:52;13.70;99.90
3154;DHT22;1587;48.630;9.046;2022-08-26T04:34:19;13.50;99.90
3154;DHT22;1587;48.630;9.046;2022-08-26T04:36:45;13.40;99.90
3154;DHT22;1587;48.630;9.046;2022-08-26T04:39:11;13.40;99.90
3154;DHT22;1587;48.630;9.046;2022-08-26T04:41:37;13.50;99.90
3154;DHT22;1587;48.630;9.046;2022-08-26T04:44:03;13.60;99.90
3154;DHT22;1587;48.630;9.046;2022-08-26T04:46:30;13.70;99.90
3154;DHT22;1587;48.630;9.046;2022-08-26T04:48:56;13.70;99.90
3154;DHT22;1587;48.630;9.046;2022-08-26T04:51:22;13.60;99.90
3154;DHT22;1587;48.630;9.046;2022-08-26T04:53:51;13.70;99.90
3154;DHT22;1587;48.630;9.046;2022-08-26T04:56:18;13.70;99.90
3154;DHT22;1587;48.630;9.046;2022-08-26T04:58:44;13.70;99.90
3154;DHT22;1587;48.630;9.046;2022-08-26T05:01:09;13.80;99.90
3154;DHT22;1587;48.630;9.046;2022-08-26T05:03:35;13.80;99.90
3154;DHT22;1587;48.630;9.046;2022-08-26T05:06:02;13.80;99.90
3154;DHT22;1587;48.630;9.046;2022-08-26T05:08:28;13.80;99.90
3154;DHT22;1587;48.630;9.046;2022-08-26T05:10:53;13.80;99.90
3154;DHT22;1587;48.630;9.046;2022-08-26T05:13:21;13.80;99.90
3154;DHT22;1587;48.630;9.046;2022-08-26T05:15:47;13.80;99.90
3154;DHT22;1587;48.630;9.046;2022-08-26T05:18:13;13.90;99.90
3154;DHT22;1587;48.630;9.046;2022-08-26T05:20:42;14.00;99.90
3154;DHT22;1587;48.630;9.046;2022-08-26T05:23:07;14.00;99.90
3154;DHT22;1587;48.630;9.046;2022-08-26T05:25:37;14.10;99.90
3154;DHT22;1587;48.630;9.046;2022-08-26T05:28:03;14.20;99.90
3154;DHT22;1587;48.630;9.046;2022-08-26T05:30:29;14.20;99.90
3154;DHT22;1587;48.630;9.046;2022-08-26T05:32:55;14.30;99.90
3154;DHT22;1587;48.630;9.046;2022-08-26T05:35:21;14.40;99.90
3154;DHT22;1587;48.630;9.046;2022-08-26T05:37:47;14.40;99.90
3154;DHT22;1587;48.630;9.046;2022-08-26T05:40:13;14.40;99.90
3154;DHT22;1587;48.630;9.046;2022-08-26T05:42:39;14.40;99.90
3154;DHT22;1587;48.630;9.046;2022-08-26T05:45:04;14.40;99.90
3154;DHT22;1587;48.630;9.046;2022-08-26T05:47:30;14.40;99.90
3154;DHT22;1587;48.630;9.046;2022-08-26T05:49:55;14.40;99.90
3154;DHT22;1587;48.630;9.046;2022-08-26T05:52:21;14.50;99.90
3154;DHT22;1587;48.630;9.046;2022-08-26T05:54:47;14.60;99.90
3154;DHT22;1587;48.630;9.046;2022-08-26T05:57:12;14.70;99.90
3154;DHT22;1587;48.630;9.046;2022-08-26T05:59:38;14.80;99.90
3154;DHT22;1587;48.630;9.046;2022-08-26T06:02:04;14.90;99.90
3154;DHT22;1587;48.630;9.046;2022-08-26T06:04:29;15.10;99.90
3154;DHT22;1587;48.630;9.046;2022-08-26T06:06:56;15.10;99.90
3154;DHT22;1587;48.630;9.046;2022-08-26T06:09:21;15.20;99.90
3154;DHT22;1587;48.630;9.046;2022-08-26T06:11:47;15.20;99.90
3154;DHT22;1587;48.630;9.046;2022-08-26T06:14:13;15.30;99.90
3154;DHT22;1587;48.630;9.046;2022-08-26T06:16:39;15.40;99.90
3154;DHT22;1587;48.630;9.046;2022-08-26T06:19:05;15.60;99.90
3154;DHT22;1587;48.630;9.046;2022-08-26T06:21:32;15.80;99.90
3154;DHT22;1587;48.630;9.046;2022-08-26T06:23:59;16.00;99.90
3154;DHT22;1587;48.630;9.046;2022-08-26T06:26:48;16.40;99.90
3154;DHT22;1587;48.630;9.046;2022-08-26T06:29:14;16.60;99.90
3154;DHT22;1587;48.630;9.046;2022-08-26T06:31:39;16.60;99.90
3154;DHT22;1587;48.630;9.046;2022-08-26T06:34:05;16.70;99.90
3154;DHT22;1587;48.630;9.046;2022-08-26T06:36:31;17.00;99.90
3154;DHT22;1587;48.630;9.046;2022-08-26T06:39:01;17.20;99.90
3154;DHT22;1587;48.630;9.046;2022-08-26T06:41:27;17.50;99.90
3154;DHT22;1587;48.630;9.046;2022-08-26T06:43:56;17.60;99.90
3154;DHT22;1587;48.630;9.046;2022-08-26T06:46:21;17.60;99.90
3154;DHT22;1587;48.630;9.046;2022-08-26T06:48:47;17.80;99.90
3154;DHT22;1587;48.630;9.046;2022-08-26T06:51:17;18.10;99.90
3154;DHT22;1587;48.630;9.046;2022-08-26T06:53:44;18.40;99.90
3154;DHT22;1587;48.630;9.046;2022-08-26T06:56:11;18.60;99.90
3154;DHT22;1587;48.630;9.046;2022-08-26T06:58:37;18.50;99.90
3154;DHT22;1587;48.630;9.046;2022-08-26T07:01:03;18.70;99.90
3154;DHT22;1587;48.630;9.046;2022-08-26T07:03:29;18.80;99.90
3154;DHT22;1587;48.630;9.046;2022-08-26T07:06:01;19.10;99.90
3154;DHT22;1587;48.630;9.046;2022-08-26T07:08:26;19.30;99.90
3154;DHT22;1587;48.630;9.046;2022-08-26T07:10:52;19.50;99.90
3154;DHT22;1587;48.630;9.046;2022-08-26T07:13:17;19.80;99.90
3154;DHT22;1587;48.630;9.046;2022-08-26T07:15:43;19.90;99.90
3154;DHT22;1587;48.630;9.046;2022-08-26T07:18:09;19.90;99.90
3154;DHT22;1587;48.630;9.046;2022-08-26T07:20:38;20.10;99.90
3154;DHT22;1587;48.630;9.046;2022-08-26T07:23:07;20.50;99.90
3154;DHT22;1587;48.630;9.046;2022-08-26T07:25:36;20.70;99.90
3154;DHT22;1587;48.630;9.046;2022-08-26T07:28:02;21.20;99.90
3154;DHT22;1587;48.630;9.046;2022-08-26T07:30:28;22.40;99.90
3154;DHT22;1587;48.630;9.046;2022-08-26T07:32:54;23.30;99.90
3154;DHT22;1587;48.630;9.046;2022-08-26T07:35:20;24.40;99.90
3154;DHT22;1587;48.630;9.046;2022-08-26T07:37:45;25.40;99.90
3154;DHT22;1587;48.630;9.046;2022-08-26T07:40:11;26.00;96.70
3154;DHT22;1587;48.630;9.046;2022-08-26T07:42:36;26.70;95.10
3154;DHT22;1587;48.630;9.046;2022-08-26T07:45:02;27.50;92.90
3154;DHT22;1587;48.630;9.046;2022-08-26T07:47:28;28.10;90.80
3154;DHT22;1587;48.630;9.046;2022-08-26T07:49:54;28.10;88.60
3154;DHT22;1587;48.630;9.046;2022-08-26T07:52:20;28.40;85.80
3154;DHT22;1587;48.630;9.046;2022-08-26T07:54:45;28.70;84.20
3154;DHT22;1587;48.630;9.046;2022-08-26T07:57:11;28.70;83.30
3154;DHT22;1587;48.630;9.046;2022-08-26T07:59:36;29.20;80.70
3154;DHT22;1587;48.630;9.046;2022-08-26T08:02:02;29.50;79.20
3154;DHT22;1587;48.630;9.046;2022-08-26T08:04:27;29.50;76.60
3154;DHT22;1587;48.630;9.046;2022-08-26T08:06:53;29.40;79.40
3154;DHT22;1587;48.630;9.046;2022-08-26T08:09:19;29.60;74.80
3154;DHT22;1587;48.630;9.046;2022-08-26T08:11:44;29.80;74.30
3154;DHT22;1587;48.630;9.046;2022-08-26T08:14:12;28.70;75.30
3154;DHT22;1587;48.630;9.046;2022-08-26T08:16:37;27.10;83.30
3154;DHT22;1587;48.630;9.046;2022-08-26T08:19:03;26.50;86.50
3154;DHT22;1587;48.630;9.046;2022-08-26T08:21:28;26.20;83.30
3154;DHT22;1587;48.630;9.046;2022-08-26T08:23:55;26.20;87.10
3154;DHT22;1587;48.630;9.046;2022-08-26T08:26:21;26.30;89.50
3154;DHT22;1587;48.630;9.046;2022-08-26T08:28:47;26.70;90.60
3154;DHT22;1587;48.630;9.046;2022-08-26T08:31:19;26.70;89.50
3154;DHT22;1587;48.630;9.046;2022-08-26T08:33:45;27.10;87.60
3154;DHT22;1587;48.630;9.046;2022-08-26T08:36:11;27.10;85.80
3154;DHT22;1587;48.630;9.046;2022-08-26T08:38:39;27.20;81.20
3154;DHT22;1587;48.630;9.046;2022-08-26T08:41:04;28.00;79.90
3154;DHT22;1587;48.630;9.046;2022-08-26T08:46:03;30.30;71.30
3154;DHT22;1587;48.630;9.046;2022-08-26T08:48:31;30.90;72.50
3154;DHT22;1587;48.630;9.046;2022-08-26T08:53:42;31.80;67.10
3154;DHT22;1587;48.630;9.046;2022-08-26T08:58:53;32.30;64.90
3154;DHT22;1587;48.630;9.046;2022-08-26T09:01:27;33.00;65.20
3154;DHT22;1587;48.630;9.046;2022-08-26T09:03:55;33.50;60.80
3154;DHT22;1587;48.630;9.046;2022-08-26T09:06:22;32.90;61.40
3154;DHT22;1587;48.630;9.046;2022-08-26T09:08:49;33.30;61.70
3154;DHT22;1587;48.630;9.046;2022-08-26T09:11:16;33.80;60.30
3154;DHT22;1587;48.630;9.046;2022-08-26T09:13:51;33.10;59.40
3154;DHT22;1587;48.630;9.046;2022-08-26T09:16:19;33.80;62.50
3154;DHT22;1587;48.630;9.046;2022-08-26T09:21:15;35.00;58.10
3154;DHT22;1587;48.630;9.046;2022-08-26T09:23:42;34.60;57.60
3154;DHT22;1587;48.630;9.046;2022-08-26T09:28:40;34.20;56.00
3154;DHT22;1587;48.630;9.046;2022-08-26T09:31:10;34.40;58.50
3154;DHT22;1587;48.630;9.046;2022-08-26T09:33:37;34.00;56.40
3154;DHT22;1587;48.630;9.046;2022-08-26T09:36:11;33.90;58.30
3154;DHT22;1587;48.630;9.046;2022-08-26T09:38:38;34.20;56.30
3154;DHT22;1587;48.630;9.046;2022-08-26T09:41:04;33.70;57.40
3154;DHT22;1587;48.630;9.046;2022-08-26T09:43:30;35.10;59.00
3154;DHT22;1587;48.630;9.046;2022-08-26T09:46:11;35.70;56.90
3154;DHT22;1587;48.630;9.046;2022-08-26T09:48:37;36.80;53.50
3154;DHT22;1587;48.630;9.046;2022-08-26T09:51:23;36.80;52.40
3154;DHT22;1587;48.630;9.046;2022-08-26T09:53:52;36.40;54.00
3154;DHT22;1587;48.630;9.046;2022-08-26T09:58:46;36.20;52.60
3154;DHT22;1587;48.630;9.046;2022-08-26T10:03:52;37.80;50.90
3154;DHT22;1587;48.630;9.046;2022-08-26T10:06:27;36.10;53.10
3154;DHT22;1587;48.630;9.046;2022-08-26T10:08:59;36.10;52.00
3154;DHT22;1587;48.630;9.046;2022-08-26T10:14:29;36.70;49.70
3154;DHT22;1587;48.630;9.046;2022-08-26T10:17:03;37.10;51.40
3154;DHT22;1587;48.630;9.046;2022-08-26T10:19:39;36.30;50.80
3154;DHT22;1587;48.630;9.046;2022-08-26T10:22:24;37.40;47.10
3154;DHT22;1587;48.630;9.046;2022-08-26T10:24:53;34.80;52.20
3154;DHT22;1587;48.630;9.046;2022-08-26T10:27:30;33.40;58.50
3154;DHT22;1587;48.630;9.046;2022-08-26T10:30:06;33.90;56.90
3154;DHT22;1587;48.630;9.046;2022-08-26T10:32:41;31.90;56.10
3154;DHT22;1587;48.630;9.046;2022-08-26T10:35:09;31.70;59.60
3154;DHT22;1587;48.630;9.046;2022-08-26T10:37:36;33.10;58.40
3154;DHT22;1587;48.630;9.046;2022-08-26T10:42:57;33.30;54.10
3154;DHT22;1587;48.630;9.046;2022-08-26T10:45:27;31.70;58.70
3154;DHT22;1587;48.630;9.046;2022-08-26T10:48:06;31.40;59.30
3154;DHT22;1587;48.630;9.046;2022-08-26T10:50:42;34.60;56.00
3154;DHT22;1587;48.630;9.046;2022-08-26T11:00:48;35.20;48.70
3154;DHT22;1587;48.630;9.046;2022-08-26T11:03:39;36.40;46.60
3154;DHT22;1587;48.630;9.046;2022-08-26T11:08:46;36.40;49.50
3154;DHT22;1587;48.630;9.046;2022-08-26T11:11:11;36.60;49.00
3154;DHT22;1587;48.630;9.046;2022-08-26T11:13:58;36.80;50.30
3154;DHT22;1587;48.630;9.046;2022-08-26T11:16:37;36.80;46.30
3154;DHT22;1587;48.630;9.046;2022-08-26T11:19:03;37.60;45.00
3154;DHT22;1587;48.630;9.046;2022-08-26T11:26:58;37.00;48.30
3154;DHT22;1587;48.630;9.046;2022-08-26T11:32:23;37.00;48.90
3154;DHT22;1587;48.630;9.046;2022-08-26T11:34:50;39.30;44.50
3154;DHT22;1587;48.630;9.046;2022-08-26T11:37:16;38.10;42.30
3154;DHT22;1587;48.630;9.046;2022-08-26T11:39:45;36.30;47.50
3154;DHT22;1587;48.630;9.046;2022-08-26T11:42:17;37.30;47.70
3154;DHT22;1587;48.630;9.046;2022-08-26T11:44:44;39.10;43.70
3154;DHT22;1587;48.630;9.046;2022-08-26T11:47:12;37.40;43.50
3154;DHT22;1587;48.630;9.046;2022-08-26T11:49:38;36.60;45.90
3154;DHT22;1587;48.630;9.046;2022-08-26T11:52:11;38.20;46.00
3154;DHT22;1587;48.630;9.046;2022-08-26T11:54:37;39.10;43.40
3154;DHT22;1587;48.630;9.046;2022-08-26T11:57:04;39.20;42.50
3154;DHT22;1587;48.630;9.046;2022-08-26T11:59:32;39.20;43.70
3154;DHT22;1587;48.630;9.046;2022-08-26T12:02:00;38.80;43.30
3154;DHT22;1587;48.630;9.046;2022-08-26T12:04:30;37.80;44.30
3154;DHT22;1587;48.630;9.046;2022-08-26T12:06:58;38.90;43.00
3154;DHT22;1587;48.630;9.046;2022-08-26T12:09:32;35.60;48.00
3154;DHT22;1587;48.630;9.046;2022-08-26T12:15:27;30.70;57.10
3154;DHT22;1587;48.630;9.046;2022-08-26T12:17:49;30.50;58.80
3154;DHT22;1587;48.630;9.046;2022-08-26T12:22:43;34.90;48.00
3154;DHT22;1587;48.630;9.046;2022-08-26T12:25:09;34.30;47.40
3154;DHT22;1587;48.630;9.046;2022-08-26T12:27:36;34.70;49.10
3154;DHT22;1587;48.630;9.046;2022-08-26T12:32:43;32.80;52.50
3154;DHT22;1587;48.630;9.046;2022-08-26T12:35:09;30.90;56.00
3154;DHT22;1587;48.630;9.046;2022-08-26T12:37:37;29.50;61.70
3154;DHT22;1587;48.630;9.046;2022-08-26T12:42:48;28.40;66.90
3154;DHT22;1587;48.630;9.046;2022-08-26T12:45:14;28.20;67.80
3154;DHT22;1587;48.630;9.046;2022-08-26T12:47:52;28.10;68.60
3154;DHT22;1587;48.630;9.046;2022-08-26T12:50:26;28.10;68.80
3154;DHT22;1587;48.630;9.046;2022-08-26T12:53:02;27.90;69.10
3154;DHT22;1587;48.630;9.046;2022-08-26T13:00:38;28.10;71.30
3154;DHT22;1587;48.630;9.046;2022-08-26T13:03:26;28.60;70.10
3154;DHT22;1587;48.630;9.046;2022-08-26T13:05:50;29.10;69.30
3154;DHT22;1587;48.630;9.046;2022-08-26T13:08:25;29.90;68.80
3154;DHT22;1587;48.630;9.046;2022-08-26T13:11:02;30.10;66.20
3154;DHT22;1587;48.630;9.046;2022-08-26T13:13:29;30.40;66.70
3154;DHT22;1587;48.630;9.046;2022-08-26T13:15:54;30.70;64.50
3154;DHT22;1587;48.630;9.046;2022-08-26T13:18:20;30.30;67.10
3154;DHT22;1587;48.630;9.046;2022-08-26T13:20:45;30.10;68.10
3154;DHT22;1587;48.630;9.046;2022-08-26T13:23:11;30.20;66.70
3154;DHT22;1587;48.630;9.046;2022-08-26T13:25:36;30.00;64.70
3154;DHT22;1587;48.630;9.046;2022-08-26T13:28:02;30.50;62.50
3154;DHT22;1587;48.630;9.046;2022-08-26T13:30:27;30.30;61.70
3154;DHT22;1587;48.630;9.046;2022-08-26T13:32:54;29.80;63.60
3154;DHT22;1587;48.630;9.046;2022-08-26T13:35:21;29.80;64.70
3154;DHT22;1587;48.630;9.046;2022-08-26T13:37:46;29.90;65.00
3154;DHT22;1587;48.630;9.046;2022-08-26T13:40:12;30.10;62.70
3154;DHT22;1587;48.630;9.046;2022-08-26T13:42:38;30.10;63.40
3154;DHT22;1587;48.630;9.046;2022-08-26T13:45:04;30.10;64.80
3154;DHT22;1587;48.630;9.046;2022-08-26T13:47:30;30.30;63.20
3154;DHT22;1587;48.630;9.046;2022-08-26T13:49:56;30.00;63.30
3154;DHT22;1587;48.630;9.046;2022-08-26T13:52:22;30.60;61.90
3154;DHT22;1587;48.630;9.046;2022-08-26T13:54:48;30.60;61.00
3154;DHT22;1587;48.630;9.046;2022-08-26T13:57:13;31.10;59.70
3154;DHT22;1587;48.630;9.046;2022-08-26T13:59:39;30.80;61.60
3154;DHT22;1587;48.630;9.046;2022-08-26T14:02:05;30.20;61.20
3154;DHT22;1587;48.630;9.046;2022-08-26T14:04:30;30.50;60.50
3154;DHT22;1587;48.630;9.046;2022-08-26T14:06:56;31.20;61.00
3154;DHT22;1587;48.630;9.046;2022-08-26T14:09:21;32.90;56.00
3154;DHT22;1587;48.630;9.046;2022-08-26T14:11:46;35.50;51.80
3154;DHT22;1587;48.630;9.046;2022-08-26T14:14:12;32.40;56.80
3154;DHT22;1587;48.630;9.046;2022-08-26T14:16:37;31.30;60.60
3154;DHT22;1587;48.630;9.046;2022-08-26T14:19:05;32.20;57.80
3154;DHT22;1587;48.630;9.046;2022-08-26T14:21:31;31.80;60.30
3154;DHT22;1587;48.630;9.046;2022-08-26T14:23:57;31.90;60.80
3154;DHT22;1587;48.630;9.046;2022-08-26T14:26:23;31.40;61.70
3154;DHT22;1587;48.630;9.046;2022-08-26T14:28:48;26.50;82.80
3154;DHT22;1587;48.630;9.046;2022-08-26T14:31:14;23.20;97.20
3154;DHT22;1587;48.630;9.046;2022-08-26T14:33:39;22.30;99.90
3154;DHT22;1587;48.630;9.046;2022-08-26T14:36:06;21.30;99.90
3154;DHT22;1587;48.630;9.046;2022-08-26T14:38:50;21.40;99.90
3154;DHT22;1587;48.630;9.046;2022-08-26T14:41:16;22.10;99.90
3154;DHT22;1587;48.630;9.046;2022-08-26T14:43:46;22.30;99.90
3154;DHT22;1587;48.630;9.046;2022-08-26T14:46:12;23.90;99.90
3154;DHT22;1587;48.630;9.046;2022-08-26T14:48:38;25.10;99.90
3154;DHT22;1587;48.630;9.046;2022-08-26T14:51:04;25.30;99.90
3154;DHT22;1587;48.630;9.046;2022-08-26T14:53:29;25.70;99.90
3154;DHT22;1587;48.630;9.046;2022-08-26T14:56:13;25.60;99.90
3154;DHT22;1587;48.630;9.046;2022-08-26T14:58:39;25.80;99.90
3154;DHT22;1587;48.630;9.046;2022-08-26T15:01:04;26.00;99.90
3154;DHT22;1587;48.630;9.046;2022-08-26T15:03:31;25.60;99.90
3154;DHT22;1587;48.630;9.046;2022-08-26T15:05:56;24.40;99.90
3154;DHT22;1587;48.630;9.046;2022-08-26T15:08:22;23.90;99.90
3154;DHT22;1587;48.630;9.046;2022-08-26T15:10:47;23.80;99.90
3154;DHT22;1587;48.630;9.046;2022-08-26T15:13:13;24.00;99.90
3154;DHT22;1587;48.630;9.046;2022-08-26T15:15:38;24.50;99.90
3154;DHT22;1587;48.630;9.046;2022-08-26T15:18:03;24.70;99.90
3154;DHT22;1587;48.630;9.046;2022-08-26T15:20:30;24.50;99.90
3154;DHT22;1587;48.630;9.046;2022-08-26T15:22:55;24.60;99.90
3154;DHT22;1587;48.630;9.046;2022-08-26T15:25:21;25.10;99.90
3154;DHT22;1587;48.630;9.046;2022-08-26T15:27:47;25.70;99.90
3154;DHT22;1587;48.630;9.046;2022-08-26T15:30:12;26.70;99.90
3154;DHT22;1587;48.630;9.046;2022-08-26T15:32:38;27.80;99.90
3154;DHT22;1587;48.630;9.046;2022-08-26T15:35:04;27.60;96.20
3154;DHT22;1587;48.630;9.046;2022-08-26T15:37:29;27.90;96.20
3154;DHT22;1587;48.630;9.046;2022-08-26T15:39:55;26.60;99.80
3154;DHT22;1587;48.630;9.046;2022-08-26T15:42:21;25.70;99.90
3154;DHT22;1587;48.630;9.046;2022-08-26T15:44:47;25.30;99.90
3154;DHT22;1587;48.630;9.046;2022-08-26T15:47:12;25.10;99.90
3154;DHT22;1587;48.630;9.046;2022-08-26T15:49:38;24.90;99.90
3154;DHT22;1587;48.630;9.046;2022-08-26T15:52:04;25.00;99.90
3154;DHT22;1587;48.630;9.046;2022-08-26T15:54:29;25.00;99.90
3154;DHT22;1587;48.630;9.046;2022-08-26T15:56:56;24.80;99.90
3154;DHT22;1587;48.630;9.046;2022-08-26T15:59:23;24.30;99.90
3154;DHT22;1587;48.630;9.046;2022-08-26T16:01:49;23.80;99.90
3154;DHT22;1587;48.630;9.046;2022-08-26T16:04:15;23.50;99.90
3154;DHT22;1587;48.630;9.046;2022-08-26T16:06:41;23.30;99.90
3154;DHT22;1587;48.630;9.046;2022-08-26T16:09:08;23.00;99.90
3154;DHT22;1587;48.630;9.046;2022-08-26T16:11:34;23.00;99.90
3154;DHT22;1587;48.630;9.046;2022-08-26T16:14:00;22.80;99.90
3154;DHT22;1587;48.630;9.046;2022-08-26T16:16:26;22.80;99.60
3154;DHT22;1587;48.630;9.046;2022-08-26T16:18:51;22.80;99.70
3154;DHT22;1587;48.630;9.046;2022-08-26T16:21:21;22.80;99.90
3154;DHT22;1587;48.630;9.046;2022-08-26T16:23:47;22.80;99.90
3154;DHT22;1587;48.630;9.046;2022-08-26T16:26:13;22.80;99.90
3154;DHT22;1587;48.630;9.046;2022-08-26T16:28:39;22.60;99.90
3154;DHT22;1587;48.630;9.046;2022-08-26T16:31:05;22.60;99.90
3154;DHT22;1587;48.630;9.046;2022-08-26T16:33:30;22.50;99.90
3154;DHT22;1587;48.630;9.046;2022-08-26T16:35:56;22.40;99.90
3154;DHT22;1587;48.630;9.046;2022-08-26T16:38:23;22.30;99.90
3154;DHT22;1587;48.630;9.046;2022-08-26T16:40:48;22.30;99.90
3154;DHT22;1587;48.630;9.046;2022-08-26T16:43:14;22.20;99.90
3154;DHT22;1587;48.630;9.046;2022-08-26T16:45:39;22.20;99.90
3154;DHT22;1587;48.630;9.046;2022-08-26T16:48:05;21.90;99.90
3154;DHT22;1587;48.630;9.046;2022-08-26T16:50:31;21.50;99.90
3154;DHT22;1587;48.630;9.046;2022-08-26T16:52:57;21.30;99.90
3154;DHT22;1587;48.630;9.046;2022-08-26T16:55:23;21.00;99.90
3154;DHT22;1587;48.630;9.046;2022-08-26T16:57:49;20.90;99.90
3154;DHT22;1587;48.630;9.046;2022-08-26T17:00:19;20.80;99.90
3154;DHT22;1587;48.630;9.046;2022-08-26T17:02:45;20.60;99.90
3154;DHT22;1587;48.630;9.046;2022-08-26T17:05:11;20.40;99.90
3154;DHT22;1587;48.630;9.046;2022-08-26T17:07:36;20.10;99.90
3154;DHT22;1587;48.630;9.046;2022-08-26T17:10:03;20.00;99.90